Time;durP1;ratioP1;P1;durP2;ratioP2;P2;SDS_P1;SDS_P2;PMS_P1;PMS_P2;Temp;Humidity;BMP_temperature;BMP_pressure;BME280_temperature;BME280_humidity;BME280_pressure;Samples;Min_cycle;Max_cycle;Signal;HPM_P1;HPM_P2
2023/03/25 00:01:49;;;;;;;6.40;1.38;;;;;;;10.25;71.86;100151.06;5128921;27;20023;-86
2023/03/25 00:04:16;;;;;;;6.28;1.83;;;;;;;10.22;72.43;100148.56;5117505;27;20031;-87
2023/03/25 00:06:41;;;;;;;7.10;1.70;;;;;;;10.15;71.74;100126.88;5122269;27;20021;-87
2023/03/25 00:09:07;;;;;;;7.47;1.50;;;;;;;10.24;71.38;100146.72;5123069;28;20106;-87
2023/03/25 00:11:32;;;;;;;2.45;1.25;;;;;;;10.27;70.61;100140.44;5128089;27;20123;-88
2023/03/25 00:13:57;;;;;;;7.25;1.38;;;;;;;10.33;70.50;100148.91;5127548;27;20047;-87
2023/03/25 00:16:23;;;;;;;7.60;1.52;;;;;;;10.31;71.14;100152.56;5129437;27;20082;-86
2023/03/25 00:18:48;;;;;;;7.72;1.90;;;;;;;10.25;70.85;100142.28;5126903;27;20059;-87
2023/03/25 00:21:14;;;;;;;8.15;2.00;;;;;;;10.22;71.06;100148.56;5118331;27;20034;-87
2023/03/25 00:23:40;;;;;;;6.22;1.77;;;;;;;10.28;71.24;100150.06;5119356;27;20118;-87
2023/03/25 00:26:06;;;;;;;3.97;1.38;;;;;;;10.27;70.61;100157.16;5124057;27;20029;-87
2023/03/25 00:28:35;;;;;;;6.28;1.70;;;;;;;10.29;70.92;100146.50;5122649;27;20018;-87
2023/03/25 00:31:03;;;;;;;5.78;1.48;;;;;;;10.31;70.60;100144.66;5129206;27;20042;-87
2023/03/25 00:33:30;;;;;;;6.03;1.88;;;;;;;10.20;70.68;100139.84;5131727;27;20019;-87
2023/03/25 00:35:58;;;;;;;5.65;1.30;;;;;;;10.18;70.49;100141.72;5129473;27;20486;-87
2023/03/25 00:38:32;;;;;;;3.92;1.25;;;;;;;10.15;70.52;100142.72;5130015;27;20061;-87
2023/03/25 00:41:21;;;;;;;5.72;1.38;;;;;;;10.15;70.52;100142.72;5123770;27;20512;-87
2023/03/25 00:43:47;;;;;;;5.93;1.23;;;;;;;10.16;70.23;100154.13;5129921;27;20026;-87
2023/03/25 00:46:12;;;;;;;5.50;1.10;;;;;;;10.36;68.73;100127.63;5132026;27;20026;-87
2023/03/25 00:48:38;;;;;;;6.07;1.30;;;;;;;10.45;68.51;100132.44;5128486;27;20027;-87
2023/03/25 00:51:06;;;;;;;4.57;1.05;;;;;;;10.47;68.85;100138.50;5123180;27;20477;-87
2023/03/25 00:53:32;;;;;;;3.22;1.40;;;;;;;10.46;68.73;100144.72;5125494;27;20042;-87
2023/03/25 00:55:57;;;;;;;4.60;1.70;;;;;;;10.43;68.41;100120.22;5140158;27;20039;-87
2023/03/25 00:58:22;;;;;;;4.53;1.30;;;;;;;10.46;68.58;100144.72;5127485;27;20035;-87
2023/03/25 01:00:48;;;;;;;6.70;1.90;;;;;;;10.50;68.29;100142.78;5121663;27;20335;-87
2023/03/25 01:03:14;;;;;;;3.20;1.38;;;;;;;10.55;68.82;100145.19;5120112;27;20401;-86
2023/03/25 01:05:40;;;;;;;5.10;1.30;;;;;;;10.45;68.55;100126.31;5125548;27;20038;-87
2023/03/25 01:08:06;;;;;;;7.07;1.58;;;;;;;10.34;69.19;100131.25;5120027;27;20030;-87
2023/03/25 01:10:34;;;;;;;3.28;1.13;;;;;;;10.43;69.13;100138.72;5130440;27;20401;-87
2023/03/25 01:13:00;;;;;;;5.78;1.30;;;;;;;10.44;68.88;100141.31;5120125;27;20034;-87
2023/03/25 01:15:25;;;;;;;3.83;1.33;;;;;;;10.40;68.55;100131.81;5138964;27;20405;-87
2023/03/25 01:17:50;;;;;;;8.27;1.67;;;;;;;10.39;68.65;100143.31;5131170;27;20056;-87
2023/03/25 01:20:16;;;;;;;7.30;1.60;;;;;;;10.25;69.38;100132.56;5121575;27;20102;-88
2023/03/25 01:22:41;;;;;;;4.57;1.80;;;;;;;10.21;69.55;100147.72;5113311;27;20030;-87
2023/03/25 01:25:07;;;;;;;4.90;1.40;;;;;;;10.27;70.20;100130.72;5114635;27;20024;-87
2023/03/25 01:27:32;;;;;;;4.53;1.30;;;;;;;10.20;69.72;100135.41;5126774;27;20312;-87
2023/03/25 01:29:58;;;;;;;6.57;1.60;;;;;;;10.17;70.07;100138.22;5119103;27;20436;-87
2023/03/25 01:32:23;;;;;;;3.15;1.33;;;;;;;10.27;69.57;100140.44;5122994;27;20470;-87
2023/03/25 01:34:48;;;;;;;4.72;1.42;;;;;;;10.20;69.86;100143.34;5123052;27;20050;-87
2023/03/25 01:37:14;;;;;;;4.35;2.05;;;;;;;10.12;70.33;100121.75;5116100;27;20718;-87
2023/03/25 01:39:40;;;;;;;7.30;1.88;;;;;;;10.11;70.09;100146.44;5114727;27;20023;-87
2023/03/25 01:42:05;;;;;;;4.30;1.48;;;;;;;10.17;70.24;100135.59;5117016;27;20016;-87
2023/03/25 01:44:31;;;;;;;9.35;1.77;;;;;;;10.15;70.62;100149.78;5117110;27;20050;-87
2023/03/25 01:47:02;;;;;;;5.63;1.80;;;;;;;10.12;70.64;100140.25;5125828;27;20480;-87
2023/03/25 01:49:32;;;;;;;4.32;1.50;;;;;;;10.16;71.24;100152.34;5110482;27;20019;-86
2023/03/25 01:52:26;;;;;;;6.45;1.95;;;;;;;10.25;71.10;100142.28;5110472;27;20027;-86
2023/03/25 01:54:54;;;;;;;4.70;1.45;;;;;;;10.11;70.99;100135.03;5115030;27;20119;-86
2023/03/25 01:57:22;;;;;;;4.78;1.65;;;;;;;10.07;70.87;100131.69;5120665;27;20477;-87
2023/03/25 01:59:49;;;;;;;1.92;1.38;;;;;;;10.06;71.19;100129.97;5122461;27;20382;-86
2023/03/25 02:02:17;;;;;;;3.70;1.08;;;;;;;9.88;71.78;100126.44;5125809;27;20521;-86
2023/03/25 02:05:02;;;;;;;3.80;1.27;;;;;;;9.78;72.08;100121.69;5117567;27;20019;-86
2023/03/25 02:07:31;;;;;;;5.45;2.30;;;;;;;9.72;72.33;100133.41;5127647;27;20018;-86
2023/03/25 02:10:03;;;;;;;2.78;1.23;;;;;;;9.77;72.17;100120.84;5124640;27;20047;-86
2023/03/25 02:12:29;;;;;;;3.88;1.42;;;;;;;9.63;71.29;100123.28;5122623;27;20027;-86
2023/03/25 02:14:56;;;;;;;2.75;1.10;;;;;;;9.85;71.51;100133.66;5127952;27;20034;-86
2023/03/25 02:17:48;;;;;;;5.85;1.33;;;;;;;9.90;71.94;100140.44;5128881;27;20064;-87
2023/03/25 02:20:36;;;;;;;4.70;1.52;;;;;;;9.64;75.59;100124.97;5118065;27;20372;-86
2023/03/25 02:23:20;;;;;;;5.30;1.38;;;;;;;9.55;76.01;100118.34;5098091;27;20486;-86
2023/03/25 02:26:04;;;;;;;5.15;1.42;;;;;;;9.70;73.98;100124.72;5129419;27;20400;-86
2023/03/25 02:28:38;;;;;;;3.95;1.50;;;;;;;9.82;73.67;100113.53;5126009;27;20406;-86
2023/03/25 02:31:15;;;;;;;3.33;1.40;;;;;;;9.91;72.81;100121.03;5123381;27;20035;-87
2023/03/25 02:34:16;;;;;;;3.17;1.33;;;;;;;9.78;72.66;100127.81;5127798;27;20392;-86
2023/03/25 02:37:15;;;;;;;4.60;1.50;;;;;;;9.66;73.15;100117.88;5129634;27;20011;-87
2023/03/25 02:40:22;;;;;;;3.92;1.48;;;;;;;9.59;73.14;100114.66;5144479;27;20027;-86
2023/03/25 02:43:04;;;;;;;4.68;2.40;;;;;;;9.67;73.40;100124.84;5092227;27;20038;-86
2023/03/25 02:45:30;;;;;;;;;;;;;;;9.64;73.35;100124.97;5127935;27;20026;-86
2023/03/25 02:48:02;;;;;;;5.45;1.50;;;;;;;9.56;72.88;100121.84;5128478;27;20389;-86
2023/03/25 02:50:33;;;;;;;6.50;2.03;;;;;;;9.56;73.30;100135.94;5128347;27;20491;-86
2023/03/25 02:53:03;;;;;;;4.00;1.40;;;;;;;9.57;73.51;100105.97;5119167;27;20493;-87
2023/03/25 02:55:30;;;;;;;4.75;1.30;;;;;;;9.51;73.37;100142.31;5125196;27;20034;-86
2023/03/25 02:57:58;;;;;;;7.18;1.40;;;;;;;9.51;74.52;100102.75;5130060;27;20394;-86
2023/03/25 03:00:27;;;;;;;7.20;1.80;;;;;;;9.48;75.12;100108.19;5111814;27;21355;-86
2023/03/25 03:03:01;;;;;;;11.98;2.83;;;;;;;9.54;74.65;100097.34;5119764;27;20056;-86
2023/03/25 03:05:28;;;;;;;4.07;1.48;;;;;;;9.41;75.27;100128.72;5110385;27;20026;-87
2023/03/25 03:08:21;;;;;;;5.70;2.03;;;;;;;9.44;76.20;100115.38;5129517;27;20583;-86
2023/03/25 03:11:23;;;;;;;7.05;2.08;;;;;;;9.40;76.89;100122.59;5128226;27;20050;-86
2023/03/25 03:14:19;;;;;;;4.70;1.45;;;;;;;9.38;77.26;100108.63;5115282;28;20385;-86
2023/03/25 03:17:21;;;;;;;7.32;1.40;;;;;;;9.35;77.43;100108.75;5128447;27;20090;-86
2023/03/25 03:20:12;;;;;;;2.53;1.45;;;;;;;9.18;78.62;100112.16;5110279;28;20381;-86
2023/03/25 03:22:51;;;;;;;7.28;1.85;;;;;;;9.16;78.78;100103.47;5124902;27;20110;-86
2023/03/25 03:25:26;;;;;;;9.25;2.22;;;;;;;9.13;78.65;100100.13;5112562;27;20055;-86
2023/03/25 03:28:26;;;;;;;5.75;1.90;;;;;;;9.14;78.92;100104.50;5114912;28;20081;-86
2023/03/25 03:30:56;;;;;;;5.50;1.52;;;;;;;9.13;79.16;100090.41;5092913;27;20038;-86
2023/03/25 03:33:31;;;;;;;7.97;1.63;;;;;;;9.14;79.20;100112.41;5120242;28;20026;-86
2023/03/25 03:36:05;;;;;;;7.18;1.75;;;;;;;9.20;79.44;100099.78;5131400;27;20447;-86
2023/03/25 03:38:37;;;;;;;8.52;2.67;;;;;;;9.23;78.20;100105.81;5110290;28;20646;-86
2023/03/25 03:41:08;;;;;;;5.78;2.13;;;;;;;9.28;77.63;100106.47;5115184;27;20471;-86
2023/03/25 03:43:40;;;;;;;5.43;1.65;;;;;;;9.31;77.95;100098.41;5112234;28;20276;-86
2023/03/25 03:46:12;;;;;;;4.68;1.40;;;;;;;9.30;77.17;100099.34;5122970;27;20028;-86
2023/03/25 03:48:44;;;;;;;10.65;2.30;;;;;;;9.22;77.36;100080.38;5125077;27;20027;-86
2023/03/25 03:51:20;;;;;;;5.07;1.55;;;;;;;9.31;76.38;100120.38;5130981;27;20051;-86
2023/03/25 03:54:16;;;;;;;4.38;1.40;;;;;;;9.36;76.92;100096.41;5115420;27;20051;-86
2023/03/25 03:56:52;;;;;;;3.05;1.35;;;;;;;9.20;77.72;100096.28;5129006;27;20501;-86
2023/03/25 03:59:41;;;;;;;7.68;1.80;;;;;;;9.33;77.23;100096.56;5116947;27;20031;-86
2023/03/25 04:02:43;;;;;;;6.82;1.80;;;;;;;9.30;76.57;100104.63;5126310;27;20031;-86
2023/03/25 04:05:13;;;;;;;8.43;1.48;;;;;;;9.25;76.45;100098.72;5093963;28;20571;-87
2023/03/25 04:08:14;;;;;;;7.85;2.47;;;;;;;9.26;76.58;100100.41;5121883;27;20030;-86
2023/03/25 04:10:51;;;;;;;5.15;1.17;;;;;;;9.32;76.52;100110.66;5114346;27;20075;-86
2023/03/25 04:13:22;;;;;;;8.98;1.92;;;;;;;9.30;76.00;100102.00;5117366;27;20035;-86
2023/03/25 04:15:48;;;;;;;6.10;1.40;;;;;;;9.30;76.29;100120.44;5118046;27;20027;-86
2023/03/25 04:18:13;;;;;;;5.88;1.70;;;;;;;9.31;75.80;100106.34;5126991;27;20019;-86
2023/03/25 04:20:43;;;;;;;6.10;1.58;;;;;;;9.29;75.92;100097.66;5123406;27;20069;-86
2023/03/25 04:23:15;;;;;;;3.97;1.55;;;;;;;9.28;76.24;100101.19;5126468;27;20418;-86
2023/03/25 04:25:42;;;;;;;5.03;1.63;;;;;;;9.25;75.79;100086.38;5126956;27;20110;-87
2023/03/25 04:28:12;;;;;;;9.95;1.23;;;;;;;9.25;76.43;100109.25;5124235;27;20038;-87
2023/03/25 04:30:38;;;;;;;6.32;2.13;;;;;;;9.28;76.12;100098.53;5127571;27;20027;-87
2023/03/25 04:33:04;;;;;;;4.93;1.80;;;;;;;9.22;76.43;100088.28;5131620;27;20023;-86
2023/03/25 04:35:31;;;;;;;5.45;1.23;;;;;;;9.23;76.17;100116.38;5128466;27;20091;-86
2023/03/25 04:37:57;;;;;;;3.25;1.20;;;;;;;9.20;76.39;100105.06;5113493;27;20073;-86
2023/03/25 04:40:24;;;;;;;5.50;1.42;;;;;;;9.20;76.38;100091.88;5131738;27;20023;-86
2023/03/25 04:42:50;;;;;;;5.93;1.70;;;;;;;9.26;76.23;100095.13;5130846;27;20031;-86
2023/03/25 04:45:15;;;;;;;6.45;1.25;;;;;;;9.22;76.90;100104.13;5123092;27;20087;-87
2023/03/25 04:47:46;;;;;;;2.80;1.25;;;;;;;9.23;76.66;100100.53;5124002;27;20063;-86
2023/03/25 04:50:21;;;;;;;5.18;1.30;;;;;;;9.14;77.90;100131.72;5130730;27;20091;-87
2023/03/25 04:52:48;;;;;;;7.15;1.63;;;;;;;8.98;80.35;100104.31;5115578;27;20039;-87
2023/03/25 04:55:19;;;;;;;5.75;1.40;;;;;;;8.84;81.23;100104.09;5112115;27;20114;-86
2023/03/25 04:57:49;;;;;;;8.05;1.73;;;;;;;8.74;82.99;100105.44;5132442;27;20083;-86
2023/03/25 05:00:18;;;;;;;7.85;1.67;;;;;;;8.75;82.58;100117.66;5120943;27;20020;-85
2023/03/25 05:02:50;;;;;;;7.18;1.63;;;;;;;8.78;82.78;100114.91;5123975;27;20046;-86
2023/03/25 05:05:18;;;;;;;6.32;1.65;;;;;;;8.78;80.33;100099.09;5116529;27;20549;-86
2023/03/25 05:07:49;;;;;;;9.75;1.17;;;;;;;8.86;80.67;100103.09;5118277;27;20011;-86
2023/03/25 05:10:22;;;;;;;8.45;1.88;;;;;;;8.96;79.62;100108.81;5127767;27;20170;-85
2023/03/25 05:12:49;;;;;;;2.92;1.10;;;;;;;8.96;79.99;100102.69;5120018;27;20359;-86
2023/03/25 05:15:18;;;;;;;5.15;1.45;;;;;;;9.03;80.01;100112.88;5125191;27;20038;-86
2023/03/25 05:17:43;;;;;;;5.88;1.70;;;;;;;8.97;79.78;100101.75;5130142;27;20027;-86
2023/03/25 05:20:09;;;;;;;5.85;1.38;;;;;;;8.94;79.93;100100.97;5131401;27;20019;-85
2023/03/25 05:22:36;;;;;;;8.82;1.50;;;;;;;8.93;80.87;100106.31;5131278;27;20106;-85
2023/03/25 05:25:03;;;;;;;10.77;2.42;;;;;;;8.96;80.02;100116.72;5127895;27;20649;-86
2023/03/25 05:27:29;;;;;;;4.45;1.40;;;;;;;8.84;81.17;100115.47;5125830;27;20450;-85
2023/03/25 05:29:57;;;;;;;3.38;1.45;;;;;;;8.78;80.52;100117.53;5126649;27;20026;-86
2023/03/25 05:32:24;;;;;;;7.50;2.15;;;;;;;8.84;80.06;100120.75;5126928;27;20023;-86
2023/03/25 05:34:53;;;;;;;6.18;1.75;;;;;;;8.77;79.49;100107.94;5123932;27;20023;-86
2023/03/25 05:37:18;;;;;;;7.05;2.33;;;;;;;8.92;78.97;100130.97;5128432;27;20015;-86
2023/03/25 05:39:45;;;;;;;5.15;1.60;;;;;;;8.88;78.63;100124.13;5127825;27;20466;-86
2023/03/25 05:42:10;;;;;;;5.03;1.52;;;;;;;8.95;78.32;100125.53;5117511;27;20046;-86
2023/03/25 05:44:37;;;;;;;3.60;1.63;;;;;;;9.00;77.60;100112.16;5123730;27;20532;-86
2023/03/25 05:47:03;;;;;;;5.43;1.83;;;;;;;8.90;77.03;100111.72;5120482;27;20018;-87
2023/03/25 05:49:28;;;;;;;4.32;1.50;;;;;;;9.02;76.83;100118.22;5125970;27;20474;-86
2023/03/25 05:51:54;;;;;;;5.88;1.67;;;;;;;9.08;77.40;100118.78;5129224;27;20134;-86
2023/03/25 05:54:23;;;;;;;8.68;2.17;;;;;;;9.01;77.12;100122.66;5125697;27;20470;-86
2023/03/25 05:56:48;;;;;;;10.90;1.63;;;;;;;9.06;76.85;100128.56;5115764;27;20041;-86
2023/03/25 05:59:15;;;;;;;6.78;1.92;;;;;;;9.10;76.23;100126.66;5114134;27;20035;-86
2023/03/25 06:01:44;;;;;;;5.63;2.17;;;;;;;9.08;76.41;100139.03;5118356;27;20348;-86
2023/03/25 06:04:12;;;;;;;5.90;1.50;;;;;;;8.96;76.01;100129.91;5125786;27;20296;-86
2023/03/25 06:06:38;;;;;;;7.50;1.63;;;;;;;9.06;76.51;100152.28;5131018;27;20027;-86
2023/03/25 06:09:03;;;;;;;6.70;1.75;;;;;;;9.01;76.14;100145.53;5122497;27;20019;-86
2023/03/25 06:11:29;;;;;;;6.03;1.50;;;;;;;9.10;76.23;100158.28;5126448;27;20047;-86
2023/03/25 06:13:54;;;;;;;9.57;1.40;;;;;;;9.10;75.57;100150.38;5126671;27;20028;-86
2023/03/25 06:16:21;;;;;;;12.18;1.60;;;;;;;9.00;75.30;100155.22;5125065;27;20149;-86
2023/03/25 06:18:55;;;;;;;10.13;1.73;;;;;;;9.07;75.51;100159.28;5141466;27;20027;-86
2023/03/25 06:21:21;;;;;;;5.53;1.30;;;;;;;9.08;75.08;100152.22;5120837;27;20030;-86
2023/03/25 06:23:48;;;;;;;4.40;1.40;;;;;;;9.09;75.01;100149.53;5122196;27;20490;-86
2023/03/25 06:26:14;;;;;;;7.70;2.53;;;;;;;9.09;74.89;100152.16;5128276;27;20030;-86
2023/03/25 06:28:39;;;;;;;4.05;1.30;;;;;;;9.07;73.88;100142.59;5115324;27;20030;-87
2023/03/25 06:31:11;;;;;;;6.65;1.83;;;;;;;9.15;75.17;100154.50;5124468;27;20348;-86
2023/03/25 06:33:37;;;;;;;;;;;;;;;9.24;74.61;100147.13;5127119;27;20466;-87
2023/03/25 06:36:02;;;;;;;5.95;1.50;;;;;;;9.16;74.36;100161.50;5126286;27;19926;-87
2023/03/25 06:38:28;;;;;;;6.22;1.58;;;;;;;9.21;73.47;100140.19;5127408;27;20031;-87
2023/03/25 06:40:55;;;;;;;9.50;1.75;;;;;;;9.22;73.86;100155.09;5128351;27;20027;-86
2023/03/25 06:43:21;;;;;;;7.22;1.50;;;;;;;9.23;73.51;100146.22;5120994;27;20023;-86
2023/03/25 06:45:50;;;;;;;11.95;2.08;;;;;;;9.36;73.52;100160.59;5123537;27;20084;-86
2023/03/25 06:48:15;;;;;;;6.82;1.75;;;;;;;9.51;72.32;100172.19;5128701;27;20500;-86
2023/03/25 06:50:40;;;;;;;7.43;1.70;;;;;;;9.58;73.27;100155.16;5128458;27;20019;-87
2023/03/25 06:53:06;;;;;;;6.60;1.67;;;;;;;9.66;72.43;100165.38;5134684;27;20068;-87
2023/03/25 06:55:31;;;;;;;8.90;2.00;;;;;;;9.60;72.20;100166.50;5119566;27;20065;-87
2023/03/25 06:57:56;;;;;;;7.78;1.83;;;;;;;9.65;72.61;100169.81;5128038;27;20490;-86
2023/03/25 07:00:23;;;;;;;10.32;2.22;;;;;;;9.59;73.00;100164.78;5109563;27;20035;-87
2023/03/25 07:02:49;;;;;;;7.75;1.98;;;;;;;9.65;71.74;100172.44;5135293;27;20081;-86
2023/03/25 07:05:14;;;;;;;13.63;2.40;;;;;;;9.65;72.53;100177.72;5133503;27;20031;-87
2023/03/25 07:07:40;;;;;;;6.95;1.88;;;;;;;9.64;72.36;100173.34;5117454;27;20092;-88
2023/03/25 07:10:06;;;;;;;9.02;2.08;;;;;;;9.90;72.15;100164.19;5136401;27;20593;-87
2023/03/25 07:12:33;;;;;;;8.88;1.88;;;;;;;10.02;71.46;100177.72;5137486;27;20050;-87
2023/03/25 07:14:59;;;;;;;7.45;1.65;;;;;;;9.90;71.71;100161.56;5119263;27;20023;-87
2023/03/25 07:17:24;;;;;;;7.68;2.10;;;;;;;9.86;72.56;100167.91;5125858;27;20080;-86
2023/03/25 07:19:50;;;;;;;14.80;1.88;;;;;;;9.87;72.86;100150.28;5129295;27;20030;-87
2023/03/25 07:22:15;;;;;;;10.55;2.05;;;;;;;9.94;72.48;100157.84;5122571;27;20058;-87
2023/03/25 07:24:41;;;;;;;8.60;2.20;;;;;;;10.09;72.89;100171.22;5129329;27;20055;-87
2023/03/25 07:27:06;;;;;;;10.10;2.20;;;;;;;10.09;72.13;100177.38;5121492;27;20063;-86
2023/03/25 07:29:31;;;;;;;7.03;1.70;;;;;;;9.91;74.12;100172.97;5124037;27;20031;-87
2023/03/25 07:31:57;;;;;;;6.65;1.90;;;;;;;9.80;74.30;100164.72;5124238;28;20146;-85
2023/03/25 07:34:22;;;;;;;8.05;2.08;;;;;;;9.91;73.95;100179.09;5126074;28;20031;-87
2023/03/25 07:36:47;;;;;;;7.18;2.10;;;;;;;9.92;74.31;100172.03;5121051;27;20249;-86
2023/03/25 07:39:13;;;;;;;8.48;2.20;;;;;;;9.82;74.63;100171.63;5132616;27;20033;-87
2023/03/25 07:41:38;;;;;;;8.52;1.58;;;;;;;9.92;74.31;100174.69;5120542;27;20023;-86
2023/03/25 07:44:04;;;;;;;9.50;1.95;;;;;;;9.91;74.52;100179.09;5119708;27;20559;-86
2023/03/25 07:46:29;;;;;;;9.07;2.00;;;;;;;9.85;73.88;100182.03;5124910;27;20027;-87
2023/03/25 07:48:54;;;;;;;12.55;2.40;;;;;;;9.76;73.80;100176.34;5121322;27;20027;-86
2023/03/25 07:51:20;;;;;;;11.13;2.00;;;;;;;9.83;74.40;100191.81;5125251;27;20158;-86
2023/03/25 07:53:45;;;;;;;8.48;1.90;;;;;;;9.62;77.51;100192.84;5128994;27;20034;-85
2023/03/25 07:56:11;;;;;;;8.45;2.00;;;;;;;9.65;77.47;100201.47;5127590;28;20023;-86
2023/03/25 07:58:36;;;;;;;8.55;2.30;;;;;;;9.57;76.56;100203.59;5119829;28;20024;-86
2023/03/25 08:01:02;;;;;;;10.93;2.45;;;;;;;9.52;76.70;100197.69;5109508;28;20185;-87
2023/03/25 08:03:28;;;;;;;12.43;2.38;;;;;;;9.57;76.67;100195.69;5126972;27;20018;-87
2023/03/25 08:05:53;;;;;;;10.48;2.35;;;;;;;9.70;75.17;100194.19;5127055;27;20011;-86
2023/03/25 08:08:18;;;;;;;8.82;2.17;;;;;;;10.00;75.37;100193.66;5124832;27;20100;-87
2023/03/25 08:10:46;;;;;;;5.53;1.65;;;;;;;10.18;74.08;100208.63;5134180;27;20047;-86
2023/03/25 08:13:12;;;;;;;8.20;1.92;;;;;;;10.53;73.13;100211.31;5126334;27;20034;-86
2023/03/25 08:15:38;;;;;;;8.00;1.90;;;;;;;10.77;72.16;100226.88;5118757;27;20031;-86
2023/03/25 08:18:06;;;;;;;9.85;2.10;;;;;;;10.89;72.02;100221.81;5124601;27;20034;-86
2023/03/25 08:20:35;;;;;;;12.38;2.10;;;;;;;10.83;72.37;100216.88;5124067;27;20019;-87
2023/03/25 08:23:01;;;;;;;10.80;2.55;;;;;;;10.79;72.11;100217.09;5123013;27;20035;-86
2023/03/25 08:25:28;;;;;;;8.43;2.03;;;;;;;10.61;71.99;100211.81;5121190;27;20106;-87
2023/03/25 08:27:53;;;;;;;11.32;2.28;;;;;;;10.83;71.35;100216.88;5126219;27;20023;-87
2023/03/25 08:30:19;;;;;;;9.30;2.10;;;;;;;10.79;72.13;100243.53;5122767;27;20035;-87
2023/03/25 08:32:45;;;;;;;6.43;1.60;;;;;;;10.71;72.46;100212.19;5121190;27;20020;-87
2023/03/25 08:35:10;;;;;;;9.70;2.50;;;;;;;10.50;74.24;100237.94;5123703;27;20046;-86
2023/03/25 08:37:36;;;;;;;8.85;2.92;;;;;;;10.41;75.18;100241.88;5118253;27;20027;-86
2023/03/25 08:40:07;;;;;;;14.32;2.72;;;;;;;10.33;75.16;100249.31;5118014;27;21046;-86
2023/03/25 08:42:33;;;;;;;8.50;2.10;;;;;;;10.22;76.40;100241.88;5129225;27;20027;-86
2023/03/25 08:44:59;;;;;;;12.60;2.65;;;;;;;10.27;76.28;100235.56;5131194;27;20196;-86
2023/03/25 08:47:24;;;;;;;11.15;2.67;;;;;;;10.11;76.28;100245.94;5128662;27;20841;-87
2023/03/25 08:49:50;;;;;;;10.18;3.17;;;;;;;10.20;76.55;100240.22;5115905;27;20080;-86
2023/03/25 08:52:15;;;;;;;12.88;3.03;;;;;;;10.32;76.54;100238.81;5119792;27;20662;-86
2023/03/25 08:54:40;;;;;;;14.80;2.58;;;;;;;10.34;77.06;100232.53;5129059;27;20053;-86
2023/03/25 08:57:05;;;;;;;10.10;2.22;;;;;;;10.38;76.76;100235.88;5116955;27;20436;-87
2023/03/25 08:59:31;;;;;;;12.88;3.08;;;;;;;10.64;76.99;100246.03;5124546;27;20019;-86
2023/03/25 09:01:58;;;;;;;10.80;2.10;;;;;;;11.18;74.78;100235.31;5120555;27;20553;-87
2023/03/25 09:04:23;;;;;;;9.23;2.42;;;;;;;11.47;73.24;100233.78;5119497;27;20039;-87
2023/03/25 09:06:48;;;;;;;6.65;2.60;;;;;;;11.43;73.00;100230.47;5123423;27;20112;-87
2023/03/25 09:09:15;;;;;;;7.35;2.10;;;;;;;11.60;73.02;100236.63;5124873;27;20109;-87
2023/03/25 09:11:41;;;;;;;16.33;2.83;;;;;;;12.04;71.94;100239.53;5124614;27;20549;-87
2023/03/25 09:14:06;;;;;;;9.10;2.13;;;;;;;12.21;69.86;100234.13;5129150;27;20137;-86
2023/03/25 09:16:32;;;;;;;6.20;1.75;;;;;;;12.78;69.32;100222.91;5119142;27;20069;-87
2023/03/25 09:18:57;;;;;;;11.60;2.60;;;;;;;13.22;66.01;100216.75;5128721;27;20015;-87
2023/03/25 09:21:22;;;;;;;10.35;3.05;;;;;;;13.64;64.19;100223.00;5124631;27;20398;-87
2023/03/25 09:23:47;;;;;;;12.30;3.28;;;;;;;13.88;64.26;100220.59;5118961;27;20027;-87
2023/03/25 09:26:13;;;;;;;12.13;2.80;;;;;;;14.23;63.13;100250.25;5125131;27;20031;-86
2023/03/25 09:28:38;;;;;;;11.63;2.20;;;;;;;14.50;62.09;100228.97;5122198;27;20011;-87
2023/03/25 09:31:04;;;;;;;9.00;2.50;;;;;;;14.76;59.27;100216.59;5123032;27;20030;-87
2023/03/25 09:33:30;;;;;;;17.85;2.78;;;;;;;15.17;60.49;100219.09;5128399;27;20022;-87
2023/03/25 09:35:55;;;;;;;11.10;2.42;;;;;;;15.89;57.86;100229.19;5120212;27;20406;-87
2023/03/25 09:38:21;;;;;;;13.90;2.83;;;;;;;15.92;57.89;100243.16;5125303;27;20023;-88
2023/03/25 09:40:46;;;;;;;10.90;2.55;;;;;;;15.01;59.30;100227.31;5127332;27;20027;-88
2023/03/25 09:43:46;;;;;;;15.55;2.92;;;;;;;14.45;61.86;100239.03;5126183;27;20394;-88
2023/03/25 09:46:13;;;;;;;10.48;2.15;;;;;;;14.07;61.55;100236.22;5117182;27;20099;-87
2023/03/25 09:48:45;;;;;;;11.82;2.75;;;;;;;13.60;61.72;100237.44;5119678;27;20019;-87
2023/03/25 09:51:23;;;;;;;11.63;3.20;;;;;;;13.69;63.63;100242.16;5109210;27;20474;-87
2023/03/25 09:53:54;;;;;;;9.45;2.33;;;;;;;14.09;62.34;100245.81;5119660;27;20023;-87
2023/03/25 09:56:23;;;;;;;6.10;2.40;;;;;;;14.33;61.74;100248.69;5123127;27;20399;-87
2023/03/25 09:58:52;;;;;;;11.18;3.03;;;;;;;14.72;61.14;100236.41;5122555;27;20023;-87
2023/03/25 10:01:36;;;;;;;14.93;2.95;;;;;;;14.55;59.79;100232.22;5122633;27;20096;-87
2023/03/25 10:04:30;;;;;;;12.63;2.70;;;;;;;15.48;58.18;100248.91;5114788;27;20130;-87
2023/03/25 10:07:19;;;;;;;18.48;3.28;;;;;;;16.13;55.03;100262.06;5119786;27;20036;-87
2023/03/25 10:10:12;;;;;;;14.07;3.03;;;;;;;15.91;54.16;100257.44;5119919;27;20058;-88
2023/03/25 10:12:41;;;;;;;14.48;2.80;;;;;;;16.05;55.10;100259.97;5126801;27;20027;-87
2023/03/25 10:15:20;;;;;;;12.30;2.95;;;;;;;14.97;58.00;100244.44;5125300;27;20096;-86
2023/03/25 10:18:22;;;;;;;10.10;2.78;;;;;;;14.63;59.87;100245.84;5120401;27;20427;-87
2023/03/25 10:21:25;;;;;;;12.02;3.55;;;;;;;14.62;60.53;100251.28;5126741;27;20486;-87
2023/03/25 10:24:15;;;;;;;12.70;2.55;;;;;;;14.73;58.26;100225.63;5126228;27;20042;-87
2023/03/25 10:26:53;;;;;;;14.25;3.00;;;;;;;14.72;58.70;100244.38;5127948;27;20026;-87
2023/03/25 10:29:25;;;;;;;9.55;2.60;;;;;;;14.35;61.48;100240.59;5117412;27;20448;-88
2023/03/25 10:31:59;;;;;;;14.25;2.67;;;;;;;14.11;61.12;100237.72;5120351;27;20049;-86
2023/03/25 10:34:41;;;;;;;16.83;3.55;;;;;;;13.86;61.07;100234.00;5128381;27;20098;-87
2023/03/25 10:37:11;;;;;;;10.38;3.58;;;;;;;13.64;60.76;100242.44;5125839;27;20045;-87
2023/03/25 10:39:43;;;;;;;16.48;3.53;;;;;;;13.58;60.64;100240.19;5116705;27;20305;-87
2023/03/25 10:42:30;;;;;;;14.30;3.17;;;;;;;13.26;60.97;100258.09;5112655;27;20020;-87
2023/03/25 10:44:56;;;;;;;10.45;3.00;;;;;;;13.07;61.83;100244.19;5123339;27;20046;-87
2023/03/25 10:47:28;;;;;;;16.67;3.40;;;;;;;13.19;62.26;100254.06;5117845;27;20023;-86
2023/03/25 10:49:54;;;;;;;10.23;2.80;;;;;;;13.16;63.73;100252.47;5129094;27;20065;-86
2023/03/25 10:52:19;;;;;;;13.05;3.13;;;;;;;13.18;63.85;100249.69;5116056;27;20094;-86
2023/03/25 10:54:50;;;;;;;16.25;3.35;;;;;;;13.11;63.75;100257.19;5123242;27;20147;-87
2023/03/25 10:57:21;;;;;;;9.20;2.42;;;;;;;13.24;62.39;100260.84;5119638;27;20032;-86
2023/03/25 11:00:25;;;;;;;8.45;2.33;;;;;;;13.90;59.41;100266.56;5120943;27;20020;-87
2023/03/25 11:02:50;;;;;;;11.68;2.65;;;;;;;14.27;57.41;100257.94;5042290;28;20032;-87
2023/03/25 11:05:21;;;;;;;11.27;2.97;;;;;;;14.17;56.09;100256.78;5108771;27;20042;-86
2023/03/25 11:07:51;;;;;;;10.68;1.90;;;;;;;14.42;53.29;100253.41;5121406;27;20527;-87
2023/03/25 11:10:22;;;;;;;11.45;2.20;;;;;;;15.12;51.43;100258.50;5123042;27;20163;-88
2023/03/25 11:12:52;;;;;;;10.45;1.88;;;;;;;15.55;50.04;100258.19;5122002;27;20113;-87
2023/03/25 11:15:22;;;;;;;8.13;1.80;;;;;;;15.04;51.66;100245.72;5121985;27;20656;-88
2023/03/25 11:17:55;;;;;;;12.32;2.85;;;;;;;14.72;53.14;100270.97;5120904;27;20486;-88
2023/03/25 11:20:27;;;;;;;9.60;2.38;;;;;;;14.60;52.15;100254.03;5125744;27;20230;-87
2023/03/25 11:22:59;;;;;;;6.33;1.73;;;;;;;14.67;50.27;100273.09;5109903;28;20027;-88
2023/03/25 11:25:29;;;;;;;9.45;1.60;;;;;;;15.10;49.89;100268.41;5119443;27;20312;-88
2023/03/25 11:27:57;;;;;;;11.40;1.92;;;;;;;14.88;49.68;100261.03;5122256;28;20027;-88
2023/03/25 11:30:24;;;;;;;8.13;1.85;;;;;;;14.77;50.30;100267.06;5121591;27;20474;-89
2023/03/25 11:33:04;;;;;;;7.55;1.65;;;;;;;14.75;49.57;100261.00;5128254;27;20548;-87
2023/03/25 11:35:35;;;;;;;7.50;2.03;;;;;;;14.69;50.22;100282.69;5123524;27;20494;-86
2023/03/25 11:38:11;;;;;;;9.57;1.67;;;;;;;14.71;50.05;100280.78;5119849;27;20085;-86
2023/03/25 11:40:54;;;;;;;6.45;1.67;;;;;;;14.95;50.50;100286.25;5114811;27;20329;-86
2023/03/25 11:43:26;;;;;;;5.82;1.63;;;;;;;14.89;49.19;100286.69;5116018;28;20167;-88